Terminal Aerodrome Forecast
Issued by NWS

Home | Current Version | Previous Version | Text Only | Print | Product List | Glossary On
Versions: 1 2 3 4 5 6 7 8 9 10 11 12 13 14 15 16 17 18 19 20 21 22
654
FTUS43 KEAX 291531 AAA
TAFSTJ
TAF AMD
KSTJ 291531Z 2916/3012 08008KT P6SM OVC017
     FM291800 08014KT 6SM -SHRA SCT025 OVC035
     FM292200 09010KT 6SM -SHRA VCTS BKN025CB OVC070
     FM300600 10011KT 5SM -SHRA SCT008 OVC012=

USA.gov is the U.S. government's official web portal to all federal, state and local government web resources and services.